Time;durP1;ratioP1;P1;durP2;ratioP2;P2;SDS_P1;SDS_P2;PMS_P1;PMS_P2;Temp;Humidity;BMP_temperature;BMP_pressure;BME280_temperature;BME280_humidity;BME280_pressure;Samples;Min_cycle;Max_cycle;Signal;HPM_P1;HPM_P2
2023/01/23 00:00:03;;;;;;;;;52.75;38.75;;;;;5.00;61.76;102715.19;2076766;27;46388;-63
2023/01/23 00:01:08;;;;;;;;;45.00;39.40;;;;;4.99;62.38;102706.38;2107973;27;46872;-63
2023/01/23 00:02:09;;;;;;;;;37.40;36.20;;;;;4.98;62.46;102707.25;2079156;27;46756;-65
2023/01/23 00:03:09;;;;;;;;;39.25;35.50;;;;;4.97;62.34;102707.19;2101985;27;44949;-63
2023/01/23 00:04:12;;;;;;;;;38.25;36.25;;;;;4.98;62.41;102708.97;2113564;27;45774;-63
2023/01/23 00:05:12;;;;;;;;;39.40;34.60;;;;;4.96;61.93;102708.94;2086888;27;46853;-63
2023/01/23 00:06:14;;;;;;;;;42.50;36.25;;;;;4.95;61.94;102707.09;2102957;27;45765;-63
2023/01/23 00:07:15;;;;;;;;;38.40;36.40;;;;;4.94;62.05;102707.97;2099215;27;46467;-64
2023/01/23 00:08:15;;;;;;;;;45.00;38.75;;;;;4.93;62.34;102711.44;2091135;27;46483;-62
2023/01/23 00:09:16;;;;;;;;;38.75;36.25;;;;;4.94;62.60;102699.16;2079368;28;46656;-63
2023/01/23 00:10:17;;;;;;;;;46.00;39.00;;;;;4.94;62.58;102705.31;2092688;27;46944;-63
2023/01/23 00:11:20;;;;;;;;;48.75;38.25;;;;;4.96;62.60;102705.41;2098010;27;45868;-63
2023/01/23 00:12:20;;;;;;;;;42.20;38.40;;;;;4.97;62.63;102707.19;2109176;27;46680;-63
2023/01/23 00:13:21;;;;;;;;;39.25;36.50;;;;;4.96;62.53;102703.66;2081766;28;46818;-62
2023/01/23 00:14:21;;;;;;;;;49.00;39.75;;;;;4.98;62.53;102707.25;2093826;28;47102;-63
2023/01/23 00:15:22;;;;;;;;;48.50;39.25;;;;;4.99;62.70;102713.38;2094054;27;46594;-63
2023/01/23 00:16:24;;;;;;;;;40.25;36.75;;;;;4.98;62.60;102709.88;2073371;27;46657;-63
2023/01/23 00:17:28;;;;;;;;;36.80;34.40;;;;;4.97;62.34;102710.72;2092469;27;46340;-63
2023/01/23 00:18:28;;;;;;;;;49.20;40.40;;;;;4.98;62.51;102712.50;2081199;27;46913;-63
2023/01/23 00:19:29;;;;;;;;;44.25;39.50;;;;;4.97;62.47;102702.81;2078866;28;46267;-63
2023/01/23 00:20:29;;;;;;;;;47.75;41.50;;;;;4.97;62.07;102708.09;2088739;27;46080;-64
2023/01/23 00:21:30;;;;;;;;;41.00;37.75;;;;;4.98;62.61;102711.59;2086215;27;46747;-63
2023/01/23 00:22:30;;;;;;;;;33.25;30.75;;;;;4.98;62.06;102707.25;2073105;27;46650;-64
2023/01/23 00:23:31;;;;;;;;;33.75;31.50;;;;;4.98;62.12;102712.50;2071075;28;46310;-64
2023/01/23 00:24:31;;;;;;;;;39.25;37.25;;;;;4.98;62.17;102715.13;2062530;28;45196;-64
2023/01/23 00:25:32;;;;;;;;;48.25;39.75;;;;;4.99;62.46;102710.75;2079851;28;46358;-64
2023/01/23 00:26:33;;;;;;;;;46.20;39.20;;;;;4.99;62.40;102706.38;2062072;27;45580;-64
2023/01/23 00:27:34;;;;;;;;;50.25;38.75;;;;;4.99;62.09;102713.38;2083434;28;46226;-63
2023/01/23 00:28:34;;;;;;;;;43.50;36.50;;;;;4.98;62.76;102711.59;2088217;28;46607;-63
2023/01/23 00:29:34;;;;;;;;;46.25;39.00;;;;;4.98;62.38;102712.50;2097116;28;46610;-64
2023/01/23 00:30:35;;;;;;;;;51.00;39.25;;;;;4.98;62.38;102707.25;2080139;28;46588;-63
2023/01/23 00:31:38;;;;;;;;;44.00;35.00;;;;;4.99;62.30;102709.03;2095201;28;46636;-63
2023/01/23 00:32:38;;;;;;;;;52.20;41.40;;;;;4.99;62.31;102710.75;2075254;28;45118;-62
2023/01/23 00:33:40;;;;;;;;;43.50;38.00;;;;;5.00;62.71;102707.28;2064977;28;46290;-63
2023/01/23 00:34:40;;;;;;;;;47.00;39.60;;;;;5.00;62.23;102707.28;2056042;28;46379;-64
2023/01/23 00:35:40;;;;;;;;;49.75;39.00;;;;;5.01;62.59;102715.22;2084285;27;46102;-62
2023/01/23 00:36:43;;;;;;;;;41.00;38.75;;;;;5.01;62.39;102714.34;2086864;28;45532;-62
2023/01/23 00:37:43;;;;;;;;;47.80;39.00;;;;;5.00;62.69;102707.28;2091396;28;46589;-64
2023/01/23 00:38:44;;;;;;;;;47.25;39.00;;;;;5.00;62.50;102715.19;2071488;28;46691;-63
2023/01/23 00:39:44;;;;;;;;;41.25;37.25;;;;;4.99;62.24;102705.50;2096625;27;45678;-63
2023/01/23 00:40:45;;;;;;;;;45.75;39.75;;;;;4.99;62.36;102713.38;2084058;28;45704;-64
2023/01/23 00:41:46;;;;;;;;;47.25;39.25;;;;;4.99;62.66;102713.38;2077394;28;46328;-64
2023/01/23 00:42:47;;;;;;;;;42.20;37.20;;;;;4.99;62.35;102713.38;2089350;28;46649;-64
2023/01/23 00:43:49;;;;;;;;;42.25;37.25;;;;;4.97;62.28;102713.34;2077446;28;46132;-64
2023/01/23 00:44:49;;;;;;;;;49.40;40.20;;;;;4.98;62.82;102717.75;2091263;28;47000;-64
2023/01/23 00:45:50;;;;;;;;;42.00;39.00;;;;;4.98;62.34;102717.75;2091080;28;46498;-64
2023/01/23 00:46:50;;;;;;;;;42.75;37.50;;;;;4.97;62.89;102710.72;2078011;27;46108;-64
2023/01/23 00:47:50;;;;;;;;;37.75;33.75;;;;;4.99;62.67;102713.38;2098694;28;45950;-63
2023/01/23 00:48:51;;;;;;;;;45.75;40.00;;;;;4.99;62.68;102713.38;2084126;28;45967;-64
2023/01/23 00:49:52;;;;;;;;;43.00;39.00;;;;;4.99;62.85;102714.28;2083257;28;46618;-63
2023/01/23 00:50:53;;;;;;;;;41.60;37.40;;;;;5.01;62.29;102716.97;2099074;28;46330;-65
2023/01/23 00:51:55;;;;;;;;;46.25;40.50;;;;;5.00;62.28;102716.06;2078144;28;46917;-64
2023/01/23 00:52:55;;;;;;;;;45.40;38.60;;;;;5.01;62.25;102720.50;2076292;28;46384;-64
2023/01/23 00:53:55;;;;;;;;;45.00;38.50;;;;;5.01;62.77;102722.22;2073369;28;45554;-64
2023/01/23 00:54:56;;;;;;;;;46.50;39.00;;;;;5.00;62.45;102715.19;2069208;28;46327;-63
2023/01/23 00:55:56;;;;;;;;;44.75;39.00;;;;;5.01;62.86;102717.84;2074814;27;47041;-65
2023/01/23 00:56:56;;;;;;;;;38.25;35.75;;;;;5.02;62.43;102708.22;2090279;27;46356;-64
2023/01/23 00:57:57;;;;;;;;;47.75;38.25;;;;;5.02;62.94;102716.13;2093692;27;46955;-62
2023/01/23 00:58:57;;;;;;;;;37.75;31.50;;;;;5.03;62.64;102707.38;2109277;27;46519;-64
2023/01/23 00:59:58;;;;;;;;;43.75;39.25;;;;;5.02;62.18;102717.00;2088656;27;45554;-64
2023/01/23 01:00:58;;;;;;;;;43.25;35.00;;;;;5.03;62.21;102710.00;2101200;27;45460;-64
2023/01/23 01:01:58;;;;;;;;;52.25;40.00;;;;;5.03;62.23;102717.91;2098369;27;45875;-62
2023/01/23 01:02:59;;;;;;;;;42.25;38.00;;;;;5.03;62.29;102715.28;2087158;27;46287;-62
2023/01/23 01:04:00;;;;;;;;;33.50;32.00;;;;;5.03;62.33;102710.00;2096536;28;46320;-63
2023/01/23 01:05:00;;;;;;;;;41.75;37.00;;;;;5.02;62.66;102706.47;2081246;28;46704;-65
2023/01/23 01:06:01;;;;;;;;;48.75;42.00;;;;;5.04;63.06;102717.06;2085287;28;46540;-63
2023/01/23 01:07:02;;;;;;;;;40.80;36.80;;;;;5.05;62.89;102707.41;2087423;28;45344;-64
2023/01/23 01:08:03;;;;;;;;;48.00;40.50;;;;;5.06;62.69;102714.47;2067889;28;46689;-64
2023/01/23 01:09:04;;;;;;;;;46.00;38.00;;;;;5.06;62.59;102709.22;2093941;28;46349;-64
2023/01/23 01:10:05;;;;;;;;;46.25;37.25;;;;;5.05;62.18;102716.22;2069964;28;47084;-64
2023/01/23 01:11:06;;;;;;;;;47.00;37.50;;;;;5.05;62.29;102712.69;2070114;28;46409;-62
2023/01/23 01:12:07;;;;;;;;;43.20;37.40;;;;;5.06;62.52;102717.09;2098744;28;46619;-63
2023/01/23 01:13:09;;;;;;;;;47.50;40.75;;;;;5.06;62.92;102712.72;2081645;28;46107;-63
2023/01/23 01:14:09;;;;;;;;;42.00;37.80;;;;;5.07;62.26;102716.25;2080221;28;46474;-64
2023/01/23 01:15:10;;;;;;;;;47.25;39.75;;;;;5.08;62.81;102710.16;2094763;28;46433;-63
2023/01/23 01:16:10;;;;;;;;;48.00;38.75;;;;;5.08;62.67;102707.50;2070196;28;46888;-63
2023/01/23 01:17:11;;;;;;;;;43.25;37.00;;;;;5.11;62.36;102710.28;2096379;28;46266;-62
2023/01/23 01:18:11;;;;;;;;;49.00;38.50;;;;;5.10;62.89;102708.47;2084193;28;46403;-64
2023/01/23 01:19:13;;;;;;;;;45.50;38.75;;;;;5.10;62.76;102711.13;2069642;28;45384;-63
2023/01/23 01:20:14;;;;;;;;;38.20;33.80;;;;;5.09;62.49;102710.22;2098394;28;46553;-64
2023/01/23 01:21:15;;;;;;;;;46.40;39.40;;;;;5.09;62.46;102707.59;2079665;28;46782;-63
2023/01/23 01:22:15;;;;;;;;;47.00;40.20;;;;;5.09;62.36;102712.84;2087697;28;44892;-63
2023/01/23 01:23:16;;;;;;;;;43.25;39.25;;;;;5.08;62.90;102705.78;2062171;28;45618;-63
2023/01/23 01:24:17;;;;;;;;;39.75;36.00;;;;;5.08;62.79;102702.25;2065243;28;46243;-63
2023/01/23 01:25:17;;;;;;;;;45.75;38.00;;;;;5.06;62.39;102691.69;2094998;28;46161;-64
2023/01/23 01:26:17;;;;;;;;;46.00;38.75;;;;;5.07;62.58;102700.47;2068261;28;46910;-63
2023/01/23 01:27:18;;;;;;;;;47.75;38.25;;;;;5.06;62.30;102711.84;2066950;28;46176;-64
2023/01/23 01:28:18;;;;;;;;;50.75;40.50;;;;;5.05;62.24;102697.78;2096588;28;46231;-64
2023/01/23 01:29:18;;;;;;;;;41.75;37.25;;;;;5.03;62.35;102703.00;2078580;28;46439;-66
2023/01/23 01:30:19;;;;;;;;;42.50;38.50;;;;;5.01;62.62;102704.69;2087446;28;46818;-63
2023/01/23 01:31:19;;;;;;;;;51.00;42.25;;;;;5.00;62.52;102702.91;2092305;28;46560;-64
2023/01/23 01:32:20;;;;;;;;;44.50;37.25;;;;;5.00;62.24;102708.19;2101552;28;46681;-63
2023/01/23 01:33:20;;;;;;;;;41.75;36.25;;;;;5.00;62.86;102707.28;2094559;28;46788;-63
2023/01/23 01:34:20;;;;;;;;;40.50;35.75;;;;;5.00;62.76;102699.38;2079611;28;46729;-63
2023/01/23 01:35:21;;;;;;;;;43.00;37.50;;;;;5.01;62.46;102699.44;2070075;28;46621;-62
2023/01/23 01:36:23;;;;;;;;;52.20;39.60;;;;;5.03;62.40;102696.84;2105078;27;46386;-62
2023/01/23 01:37:24;;;;;;;;;46.40;39.40;;;;;5.01;63.03;102696.81;2084496;27;45389;-62
2023/01/23 01:38:24;;;;;;;;;43.60;38.40;;;;;5.01;62.83;102696.81;2097429;27;46963;-63
2023/01/23 01:39:24;;;;;;;;;44.75;38.25;;;;;5.01;62.36;102694.16;2101355;27;46483;-63
2023/01/23 01:40:32;;;;;;;;;47.00;37.25;;;;;5.02;62.96;102700.31;2085707;27;46706;-63
2023/01/23 01:41:32;;;;;;;;;50.00;40.40;;;;;5.02;62.97;102702.97;2101329;27;46729;-63
2023/01/23 01:42:43;;;;;;;;;43.00;38.75;;;;;5.02;62.72;102698.59;2072591;27;46302;-62
2023/01/23 01:43:44;;;;;;;;;42.00;39.40;;;;;5.01;62.76;102703.81;2077270;28;46924;-63
2023/01/23 01:44:54;;;;;;;;;38.50;34.25;;;;;5.01;62.69;102695.91;2079196;28;46922;-64
2023/01/23 01:46:04;;;;;;;;;44.00;39.00;;;;;5.01;62.73;102691.53;2078805;28;45333;-63
2023/01/23 01:47:05;;;;;;;;;44.20;40.00;;;;;5.01;62.48;102688.91;2076708;27;46934;-62
2023/01/23 01:48:06;;;;;;;;;52.25;43.25;;;;;5.01;63.08;102690.66;2088786;28;46113;-64
2023/01/23 01:49:13;;;;;;;;;48.75;38.50;;;;;5.01;62.64;102691.53;2092844;28;46433;-63
2023/01/23 01:50:13;;;;;;;;;47.40;40.00;;;;;5.01;63.12;102686.28;2086088;27;46448;-63
2023/01/23 01:51:34;;;;;;;;;42.50;39.75;;;;;5.02;62.63;102682.81;2100390;27;46394;-62
2023/01/23 01:52:34;;;;;;;;;44.60;39.60;;;;;5.03;62.51;102686.31;2093030;27;46489;-65
2023/01/23 01:53:37;;;;;;;;;45.00;39.00;;;;;5.02;62.78;102688.06;2073036;28;46029;-63
2023/01/23 01:54:42;;;;;;;;;39.40;37.00;;;;;5.02;62.76;102685.44;2076089;27;47031;-64
2023/01/23 01:55:42;;;;;;;;;48.80;38.80;;;;;5.03;62.61;102683.69;2086967;27;46602;-62
2023/01/23 01:56:50;;;;;;;;;43.75;38.75;;;;;5.03;62.94;102684.59;2072219;28;46604;-64
2023/01/23 01:57:53;;;;;;;;;50.80;39.60;;;;;5.04;62.60;102688.09;2074131;28;46666;-62
2023/01/23 01:58:54;;;;;;;;;42.20;39.00;;;;;5.04;62.65;102688.09;2094581;28;46878;-64
2023/01/23 02:00:16;;;;;;;;;38.00;36.60;;;;;5.05;62.58;102689.91;2076146;27;46544;-65
2023/01/23 02:01:17;;;;;;;;;44.00;38.00;;;;;5.06;62.83;102685.53;2086579;27;46508;-62
2023/01/23 02:02:24;;;;;;;;;49.80;41.60;;;;;5.08;63.05;102683.81;2106760;27;46213;-63
2023/01/23 02:03:25;;;;;;;;;43.80;38.40;;;;;5.07;62.87;102685.56;2090934;27;46519;-62
2023/01/23 02:04:25;;;;;;;;;46.20;40.40;;;;;5.08;63.05;102684.72;2090171;27;46534;-63
2023/01/23 02:05:30;;;;;;;;;49.00;39.25;;;;;5.07;62.77;102680.31;2100616;27;46859;-62
2023/01/23 02:06:31;;;;;;;;;44.80;41.40;;;;;5.08;62.89;102689.09;2085350;27;46862;-64
2023/01/23 02:07:43;;;;;;;;;47.25;39.00;;;;;5.09;63.04;102685.66;2093535;27;46191;-64
2023/01/23 02:08:51;;;;;;;;;46.20;39.60;;;;;5.08;63.05;102681.19;2096458;27;46311;-62
2023/01/23 02:09:53;;;;;;;;;51.80;41.40;;;;;5.08;62.76;102683.81;2085894;27;46936;-63
2023/01/23 02:10:53;;;;;;;;;45.40;38.80;;;;;5.09;62.79;102683.03;2088227;27;46962;-61
2023/01/23 02:11:54;;;;;;;;;52.75;43.00;;;;;5.08;62.44;102674.19;2098939;27;46456;-63
2023/01/23 02:12:54;;;;;;;;;41.25;37.00;;;;;5.09;62.55;102683.03;2077770;28;46334;-63
2023/01/23 02:13:55;;;;;;;;;45.00;38.00;;;;;5.11;63.00;102682.22;2103064;27;46274;-63
2023/01/23 02:14:56;;;;;;;;;48.00;38.00;;;;;5.11;62.58;102676.06;2093806;27;46070;-64
2023/01/23 02:15:59;;;;;;;;;46.20;38.60;;;;;5.11;62.90;102682.22;2081301;27;45057;-64
2023/01/23 02:17:02;;;;;;;;;49.00;39.80;;;;;5.10;62.92;102677.78;2106406;27;46637;-63
2023/01/23 02:18:02;;;;;;;;;39.20;35.80;;;;;5.10;62.79;102684.81;2082661;27;47340;-64
2023/01/23 02:19:22;;;;;;;;;40.75;36.25;;;;;5.08;63.05;102684.72;2069518;28;46600;-64
2023/01/23 02:20:26;;;;;;;;;46.40;39.20;;;;;5.07;62.43;102682.03;2089212;28;46464;-63
2023/01/23 02:21:27;;;;;;;;;55.20;43.20;;;;;5.05;62.44;102683.75;2074783;28;46482;-64
2023/01/23 02:22:48;;;;;;;;;44.00;40.20;;;;;5.05;62.82;102681.09;2075937;28;46420;-63
2023/01/23 02:24:18;;;;;;;;;48.00;40.00;;;;;5.05;62.40;102682.00;2098226;28;46875;-64
2023/01/23 02:25:41;;;;;;;;;33.80;30.40;;;;;5.05;63.05;102678.47;2104308;28;46598;-64
2023/01/23 02:26:44;;;;;;;;;40.80;36.40;;;;;5.06;63.10;102690.78;2103278;27;45364;-64
2023/01/23 02:27:44;;;;;;;;;44.60;36.20;;;;;5.06;63.06;102686.41;2100877;27;45541;-63
2023/01/23 02:28:50;;;;;;;;;45.25;40.00;;;;;5.07;63.09;102682.94;2104035;28;45011;-62
2023/01/23 02:29:51;;;;;;;;;38.80;36.40;;;;;5.07;63.19;102684.69;2110776;27;46514;-63
2023/01/23 02:30:51;;;;;;;;;48.80;39.20;;;;;5.07;62.65;102688.19;2103923;27;46341;-62
2023/01/23 02:31:52;;;;;;;;;42.00;37.00;;;;;5.06;63.12;102688.16;2104039;28;46741;-63
2023/01/23 02:32:52;;;;;;;;;37.00;34.50;;;;;5.06;62.58;102685.53;2105201;27;46826;-62
2023/01/23 02:33:57;;;;;;;;;44.75;40.75;;;;;5.06;62.69;102686.41;2104228;28;46451;-63
2023/01/23 02:35:14;;;;;;;;;44.00;36.80;;;;;5.04;62.81;102680.22;2103802;28;46674;-63
2023/01/23 02:36:17;;;;;;;;;37.20;36.60;;;;;5.05;63.28;102683.75;2104261;28;45933;-62
2023/01/23 02:37:19;;;;;;;;;43.80;38.00;;;;;5.05;62.62;102683.75;2096956;28;45397;-62
2023/01/23 02:38:24;;;;;;;;;48.20;39.40;;;;;5.05;62.75;102684.63;2100495;28;46483;-62
2023/01/23 02:39:26;;;;;;;;;44.40;38.20;;;;;5.05;63.08;102682.00;2106194;27;46342;-63
2023/01/23 02:40:39;;;;;;;;;43.00;36.40;;;;;5.05;63.10;102684.63;2105651;27;45857;-62
2023/01/23 02:41:43;;;;;;;;;43.80;38.80;;;;;5.06;63.27;102683.78;2103878;28;46327;-64
2023/01/23 02:42:45;;;;;;;;;49.20;39.20;;;;;5.06;62.77;102686.41;2104318;28;45938;-63
2023/01/23 02:43:47;;;;;;;;;45.00;40.20;;;;;5.07;63.11;102684.69;2103316;27;46709;-63
2023/01/23 02:44:48;;;;;;;;;52.60;40.60;;;;;5.07;62.99;102696.09;2103744;28;46621;-64
2023/01/23 02:45:49;;;;;;;;;47.40;38.60;;;;;5.07;62.92;102692.56;2098160;28;46495;-63
2023/01/23 02:46:49;;;;;;;;;46.75;40.75;;;;;5.06;63.17;102691.69;2101360;28;46275;-63
2023/01/23 02:47:49;;;;;;;;;46.25;40.00;;;;;5.06;62.69;102690.78;2104480;27;46937;-63
2023/01/23 02:48:50;;;;;;;;;52.75;43.25;;;;;5.06;62.86;102693.41;2103751;28;46603;-63
2023/01/23 02:49:51;;;;;;;;;50.75;38.00;;;;;5.06;62.99;102701.31;2105085;27;46902;-64
2023/01/23 02:50:51;;;;;;;;;48.50;38.75;;;;;5.05;63.29;102700.41;2106692;27;47138;-63
2023/01/23 02:51:52;;;;;;;;;40.25;38.00;;;;;5.04;62.79;102703.91;2094724;28;46436;-64
2023/01/23 02:52:53;;;;;;;;;44.40;39.40;;;;;5.05;62.69;102704.78;2095002;28;46650;-64
2023/01/23 02:53:54;;;;;;;;;50.25;42.50;;;;;5.03;62.96;102705.63;2095545;28;46558;-63
2023/01/23 02:54:54;;;;;;;;;52.50;42.00;;;;;5.03;62.87;102710.00;2100886;27;45768;-64
2023/01/23 02:55:55;;;;;;;;;46.50;38.25;;;;;5.03;63.25;102702.13;2082045;27;46377;-64
2023/01/23 02:56:56;;;;;;;;;45.80;37.80;;;;;5.03;63.32;102707.38;2072543;28;46733;-64
2023/01/23 03:00:34;;;;;;;;;41.80;37.60;;;;;5.05;63.16;102712.69;2070412;28;46726;-64
2023/01/23 03:01:35;;;;;;;;;41.00;38.50;;;;;5.06;63.03;102709.22;2070075;28;46911;-64
2023/01/23 03:02:37;;;;;;;;;42.00;38.00;;;;;5.05;63.34;102702.16;2070080;28;46377;-64
2023/01/23 03:03:37;;;;;;;;;51.40;41.60;;;;;5.05;62.85;102702.16;2095061;27;46982;-65
2023/01/23 03:04:37;;;;;;;;;55.00;43.00;;;;;5.05;62.88;102703.06;2102278;27;45274;-63
2023/01/23 03:05:38;;;;;;;;;51.50;40.00;;;;;5.05;63.36;102699.53;2070970;28;46286;-63
2023/01/23 03:06:38;;;;;;;;;44.75;38.25;;;;;5.06;63.38;102706.56;2070470;28;45897;-64
2023/01/23 03:07:38;;;;;;;;;47.00;40.00;;;;;5.06;63.36;102701.31;2069684;28;46898;-64
2023/01/23 03:08:46;;;;;;;;;52.50;41.25;;;;;5.05;63.08;102695.16;2062041;28;44921;-63
2023/01/23 03:09:47;;;;;;;;;49.00;39.00;;;;;5.05;63.34;102697.78;2061834;28;46442;-64
2023/01/23 03:10:47;;;;;;;;;45.00;39.40;;;;;5.05;63.51;102700.41;2069362;27;46583;-63
2023/01/23 03:11:49;;;;;;;;;46.75;37.50;;;;;5.04;63.45;102701.25;2078195;28;46239;-64
2023/01/23 03:12:49;;;;;;;;;42.40;37.20;;;;;5.04;63.05;102701.25;2074382;28;46749;-63
2023/01/23 03:13:50;;;;;;;;;44.25;39.00;;;;;5.03;63.35;102705.63;2069890;27;46162;-63
2023/01/23 03:14:53;;;;;;;;;47.50;40.50;;;;;5.04;63.25;102703.91;2070365;27;46523;-63
2023/01/23 03:15:57;;;;;;;;;47.60;38.00;;;;;5.03;63.34;102708.25;2061681;28;46291;-62
2023/01/23 03:16:58;;;;;;;;;47.20;39.20;;;;;5.03;63.32;102700.38;2062540;28;46971;-62
2023/01/23 03:17:58;;;;;;;;;45.50;38.00;;;;;5.03;62.85;102699.47;2064547;28;46551;-66
2023/01/23 03:19:03;;;;;;;;;40.50;36.25;;;;;5.02;63.38;102700.31;2069298;28;46494;-62
2023/01/23 03:20:05;;;;;;;;;56.40;43.40;;;;;5.01;62.94;102701.19;2068965;27;46066;-63
2023/01/23 03:21:06;;;;;;;;;47.80;38.80;;;;;5.00;63.07;102696.75;2068283;28;45645;-64
2023/01/23 03:22:07;;;;;;;;;46.60;39.80;;;;;5.01;63.19;102695.91;2063609;28;46017;-63
2023/01/23 03:23:07;;;;;;;;;46.50;40.00;;;;;5.01;63.46;102695.91;2071309;28;46323;-64
2023/01/23 03:24:10;;;;;;;;;49.50;41.50;;;;;5.00;62.98;102700.28;2071306;27;46396;-64
2023/01/23 03:25:11;;;;;;;;;50.80;39.20;;;;;5.00;63.52;102699.38;2071522;28;46705;-65
2023/01/23 03:26:11;;;;;;;;;50.00;38.50;;;;;5.00;63.18;102694.13;2074160;27;46493;-63
2023/01/23 03:27:12;;;;;;;;;49.25;41.00;;;;;4.99;63.07;102698.50;2074067;27;46702;-62
2023/01/23 03:30:12;;;;;;;;;44.75;39.75;;;;;4.99;63.18;102692.34;2063135;28;46078;-63
2023/01/23 03:30:51;;;;;;;;;50.80;40.20;;;;;4.98;63.24;102693.19;2062475;28;46850;-62
2023/01/23 03:31:51;;;;;;;;;49.25;42.25;;;;;4.99;63.46;102694.97;2065306;27;45805;-65
2023/01/23 03:32:52;;;;;;;;;43.50;37.25;;;;;4.99;63.49;102695.88;2067878;28;46407;-64
2023/01/23 03:33:52;;;;;;;;;43.75;37.00;;;;;4.99;63.19;102697.59;2071444;27;46591;-65
2023/01/23 03:34:53;;;;;;;;;44.00;39.50;;;;;5.00;63.36;102702.03;2071369;27;46201;-64
2023/01/23 03:35:53;;;;;;;;;46.25;40.00;;;;;5.00;63.11;102700.28;2071341;27;46799;-65
2023/01/23 03:36:53;;;;;;;;;34.75;32.50;;;;;5.01;63.59;102703.81;2071423;27;45506;-65
2023/01/23 03:37:54;;;;;;;;;43.50;36.00;;;;;5.00;63.29;102697.66;2062623;28;46841;-65
2023/01/23 03:41:38;;;;;;;;;49.80;40.60;;;;;5.02;63.18;102697.69;2071563;27;46556;-64
2023/01/23 03:42:38;;;;;;;;;44.80;36.20;;;;;5.03;63.11;102702.13;2071237;28;46081;-65
2023/01/23 03:43:38;;;;;;;;;47.50;39.25;;;;;5.02;63.25;102703.84;2069307;28;46373;-66
2023/01/23 03:44:39;;;;;;;;;49.75;42.00;;;;;5.02;63.42;102698.59;2069375;27;46143;-64
2023/01/23 03:45:39;;;;;;;;;46.50;37.75;;;;;5.02;63.15;102703.84;2076735;28;46599;-63
2023/01/23 03:46:40;;;;;;;;;52.50;42.00;;;;;5.03;63.50;102697.75;2075634;28;46362;-65
2023/01/23 03:47:40;;;;;;;;;33.25;29.75;;;;;5.04;63.18;102701.25;2062828;28;46444;-64
2023/01/23 03:48:40;;;;;;;;;46.00;40.00;;;;;5.04;63.19;102703.91;2065884;28;46909;-63
2023/01/23 03:49:41;;;;;;;;;42.50;37.75;;;;;5.05;63.14;102699.53;2070837;28;46378;-65
2023/01/23 03:50:41;;;;;;;;;47.50;39.00;;;;;5.06;63.70;102701.31;2071486;27;46220;-65
2023/01/23 03:51:42;;;;;;;;;46.00;39.00;;;;;5.06;63.17;102710.09;2071625;27;45987;-64
2023/01/23 03:52:42;;;;;;;;;41.25;36.50;;;;;5.08;63.51;102705.78;2093473;27;46694;-65
2023/01/23 03:53:42;;;;;;;;;37.00;33.75;;;;;5.08;63.13;102702.25;2079018;27;45572;-65
2023/01/23 03:54:43;;;;;;;;;41.00;37.25;;;;;5.07;63.97;102700.47;2094881;27;46560;-64
2023/01/23 03:55:46;;;;;;;;;48.00;40.75;;;;;5.08;63.27;102700.50;2086708;27;45698;-64
2023/01/23 03:56:47;;;;;;;;;45.60;38.80;;;;;5.08;63.27;102699.63;2083054;27;46814;-64
2023/01/23 03:57:47;;;;;;;;;48.25;40.25;;;;;5.08;63.36;102705.78;2096702;27;46718;-64
2023/01/23 03:58:47;;;;;;;;;47.00;41.50;;;;;5.07;63.42;102701.34;2080537;27;46928;-63
2023/01/23 03:59:48;;;;;;;;;44.00;38.00;;;;;5.06;63.13;102704.84;2091477;27;45877;-65
2023/01/23 04:00:48;;;;;;;;;44.75;38.50;;;;;5.05;63.32;102691.63;2092643;27;45968;-65
2023/01/23 04:01:48;;;;;;;;;39.75;37.00;;;;;5.05;63.11;102699.53;2055032;28;45290;-65
2023/01/23 04:02:49;;;;;;;;;50.25;40.50;;;;;5.05;63.39;102696.91;2081155;28;46681;-64
2023/01/23 04:03:49;;;;;;;;;42.50;35.50;;;;;5.03;63.12;102695.13;2106217;27;46389;-66
2023/01/23 04:04:49;;;;;;;;;47.75;41.00;;;;;5.05;63.38;102702.16;2084277;27;46847;-64
2023/01/23 04:05:54;;;;;;;;;41.50;36.75;;;;;5.05;63.49;102703.06;2089753;27;46594;-65
2023/01/23 04:06:54;;;;;;;;;36.00;34.40;;;;;5.03;63.61;102697.75;2079378;27;46864;-64
2023/01/23 04:07:55;;;;;;;;;37.50;35.50;;;;;5.03;63.14;102689.84;2089809;27;46667;-65
2023/01/23 04:08:57;;;;;;;;;44.50;37.25;;;;;5.05;63.57;102696.91;2090331;27;46563;-63
2023/01/23 04:09:57;;;;;;;;;38.20;35.40;;;;;5.05;63.75;102689.00;2079679;27;45824;-65
2023/01/23 04:11:06;;;;;;;;;49.50;40.75;;;;;5.05;63.35;102695.16;2070487;28;46841;-63
2023/01/23 04:12:06;;;;;;;;;46.40;37.60;;;;;5.05;63.38;102689.00;2083515;27;46115;-64
2023/01/23 04:13:06;;;;;;;;;37.00;34.25;;;;;5.05;63.19;102689.00;2079072;27;46006;-63
2023/01/23 04:14:07;;;;;;;;;44.00;38.50;;;;;5.05;63.33;102692.53;2090851;27;45766;-64
2023/01/23 04:15:08;;;;;;;;;42.50;37.25;;;;;5.06;63.30;102689.03;2079538;28;44921;-62
2023/01/23 04:16:08;;;;;;;;;37.00;35.00;;;;;5.06;63.20;102693.41;2071738;27;46254;-63
2023/01/23 04:17:09;;;;;;;;;50.25;40.75;;;;;5.07;63.62;102695.19;2087159;27;46388;-63
2023/01/23 04:18:10;;;;;;;;;46.20;39.60;;;;;5.06;63.79;102691.69;2108800;27;46615;-63
2023/01/23 04:19:10;;;;;;;;;48.50;40.75;;;;;5.08;63.45;102697.00;2105013;28;45812;-63
2023/01/23 04:20:11;;;;;;;;;48.75;39.00;;;;;5.09;63.49;102698.81;2069186;28;46434;-63
2023/01/23 04:21:12;;;;;;;;;44.80;38.60;;;;;5.08;63.43;102697.88;2079449;28;45763;-63
2023/01/23 04:22:12;;;;;;;;;38.25;36.00;;;;;5.10;63.48;102696.22;2074388;27;46634;-64
2023/01/23 04:23:12;;;;;;;;;52.25;41.00;;;;;5.10;63.56;102697.97;2111847;27;45953;-62
2023/01/23 04:24:13;;;;;;;;;43.00;37.50;;;;;5.09;63.25;102704.97;2112503;27;47225;-63
2023/01/23 04:25:13;;;;;;;;;52.25;43.25;;;;;5.09;63.54;102702.31;2091949;27;46400;-64
2023/01/23 04:26:14;;;;;;;;;55.50;42.75;;;;;5.10;63.38;102700.59;2079241;27;46494;-63
2023/01/23 04:27:14;;;;;;;;;43.50;36.75;;;;;5.10;63.73;102705.84;2091951;27;46651;-62
2023/01/23 04:28:14;;;;;;;;;40.00;37.75;;;;;5.10;63.71;102697.97;2092964;27;45968;-63
2023/01/23 04:29:15;;;;;;;;;48.00;38.75;;;;;5.11;63.31;102712.91;2078519;28;46733;-63
2023/01/23 04:30:16;;;;;;;;;42.20;38.20;;;;;5.11;63.68;102710.28;2092632;27;45775;-63
2023/01/23 04:31:17;;;;;;;;;43.00;39.50;;;;;5.11;63.16;102707.63;2086427;27;45599;-64
2023/01/23 04:32:17;;;;;;;;;47.25;36.25;;;;;5.10;63.25;102708.47;2084305;27;46625;-63
2023/01/23 04:33:18;;;;;;;;;47.50;39.25;;;;;5.08;63.16;102705.78;2090595;27;46656;-64
2023/01/23 04:34:19;;;;;;;;;46.20;40.40;;;;;5.08;63.00;102713.66;2080315;27;46284;-64
2023/01/23 04:35:19;;;;;;;;;37.00;33.75;;;;;5.07;63.10;102711.88;2087066;27;46829;-64
2023/01/23 04:36:19;;;;;;;;;47.75;40.75;;;;;5.06;63.31;102714.47;2087658;27;45129;-65
2023/01/23 04:37:20;;;;;;;;;55.50;41.50;;;;;5.04;63.63;102714.41;2079570;28;45729;-63
2023/01/23 04:38:24;;;;;;;;;45.25;38.75;;;;;5.04;63.62;102709.16;2082972;28;45536;-64
2023/01/23 04:39:25;;;;;;;;;42.20;37.40;;;;;5.03;63.42;102705.63;2077363;27;46922;-63
2023/01/23 04:40:25;;;;;;;;;45.25;39.75;;;;;5.02;63.86;102711.75;2082492;27;45490;-63
2023/01/23 04:41:28;;;;;;;;;41.50;38.75;;;;;5.03;63.62;102715.28;2089432;27;45941;-63
2023/01/23 04:42:28;;;;;;;;;48.20;40.20;;;;;5.02;63.80;102706.47;2079958;27;45623;-63
2023/01/23 04:43:29;;;;;;;;;42.75;36.50;;;;;5.02;63.39;102703.84;2087815;27;46518;-64
2023/01/23 04:44:30;;;;;;;;;47.00;39.20;;;;;5.02;63.88;102706.47;2076931;27;47068;-64
2023/01/23 04:45:30;;;;;;;;;43.50;38.75;;;;;5.02;63.38;102705.59;2068254;27;45087;-63
2023/01/23 04:46:30;;;;;;;;;43.25;37.75;;;;;5.01;63.44;102703.81;2084837;27;46928;-64
2023/01/23 04:47:31;;;;;;;;;45.00;38.50;;;;;5.02;63.71;102708.22;2081468;27;45914;-65
2023/01/23 04:48:31;;;;;;;;;44.75;37.50;;;;;5.01;63.34;102712.59;2081298;27;46442;-63
2023/01/23 04:49:31;;;;;;;;;49.00;40.50;;;;;5.02;63.74;102721.38;2089918;27;46577;-63
2023/01/23 04:50:32;;;;;;;;;49.25;39.25;;;;;5.02;63.38;102713.47;2072238;27;46315;-63